sensor_id;sensor_type;location;lat;lon;timestamp;P1;durP1;ratioP1;P2;durP2;ratioP2
20095;SDS011;10207;50.942;6.900;2023-05-10T00:02:14;39.70;;;15.13;;
20095;SDS011;10207;50.942;6.900;2023-05-10T00:04:39;35.97;;;14.50;;
20095;SDS011;10207;50.942;6.900;2023-05-10T00:07:05;40.70;;;15.30;;
20095;SDS011;10207;50.942;6.900;2023-05-10T00:09:31;39.17;;;15.70;;
20095;SDS011;10207;50.942;6.900;2023-05-10T00:11:57;45.00;;;16.55;;
20095;SDS011;10207;50.942;6.900;2023-05-10T00:14:24;54.90;;;16.40;;
20095;SDS011;10207;50.942;6.900;2023-05-10T00:16:50;45.78;;;16.77;;
20095;SDS011;10207;50.942;6.900;2023-05-10T00:19:15;48.58;;;18.15;;
20095;SDS011;10207;50.942;6.900;2023-05-10T00:21:41;51.70;;;18.33;;
20095;SDS011;10207;50.942;6.900;2023-05-10T00:24:07;54.83;;;18.67;;
20095;SDS011;10207;50.942;6.900;2023-05-10T00:26:33;53.53;;;17.92;;
20095;SDS011;10207;50.942;6.900;2023-05-10T00:29:00;60.22;;;19.77;;
20095;SDS011;10207;50.942;6.900;2023-05-10T00:31:26;56.72;;;17.95;;
20095;SDS011;10207;50.942;6.900;2023-05-10T00:33:52;55.33;;;18.45;;
20095;SDS011;10207;50.942;6.900;2023-05-10T00:36:18;64.63;;;20.23;;
20095;SDS011;10207;50.942;6.900;2023-05-10T00:38:43;55.85;;;17.95;;
20095;SDS011;10207;50.942;6.900;2023-05-10T00:41:10;56.47;;;17.58;;
20095;SDS011;10207;50.942;6.900;2023-05-10T00:43:38;55.92;;;18.83;;
20095;SDS011;10207;50.942;6.900;2023-05-10T00:46:04;60.88;;;18.63;;
20095;SDS011;10207;50.942;6.900;2023-05-10T00:48:30;52.92;;;18.67;;
20095;SDS011;10207;50.942;6.900;2023-05-10T00:50:57;61.80;;;19.50;;
20095;SDS011;10207;50.942;6.900;2023-05-10T00:53:23;56.22;;;18.38;;
20095;SDS011;10207;50.942;6.900;2023-05-10T00:55:50;56.00;;;18.08;;
20095;SDS011;10207;50.942;6.900;2023-05-10T00:58:16;57.45;;;18.42;;
20095;SDS011;10207;50.942;6.900;2023-05-10T01:00:42;64.18;;;19.75;;
20095;SDS011;10207;50.942;6.900;2023-05-10T01:03:10;51.95;;;18.60;;
20095;SDS011;10207;50.942;6.900;2023-05-10T01:05:37;62.35;;;18.58;;
20095;SDS011;10207;50.942;6.900;2023-05-10T01:08:03;52.35;;;18.73;;
20095;SDS011;10207;50.942;6.900;2023-05-10T01:10:30;55.00;;;18.38;;
20095;SDS011;10207;50.942;6.900;2023-05-10T01:12:56;66.35;;;19.77;;
20095;SDS011;10207;50.942;6.900;2023-05-10T01:15:22;64.55;;;19.50;;
20095;SDS011;10207;50.942;6.900;2023-05-10T01:17:48;68.65;;;19.92;;
20095;SDS011;10207;50.942;6.900;2023-05-10T01:20:14;57.78;;;17.33;;
20095;SDS011;10207;50.942;6.900;2023-05-10T01:22:55;54.63;;;18.13;;
20095;SDS011;10207;50.942;6.900;2023-05-10T01:33:26;60.33;;;18.00;;
20095;SDS011;10207;50.942;6.900;2023-05-10T01:36:08;55.90;;;18.45;;
20095;SDS011;10207;50.942;6.900;2023-05-10T01:43:37;49.03;;;17.70;;
20095;SDS011;10207;50.942;6.900;2023-05-10T01:46:07;46.97;;;15.75;;
20095;SDS011;10207;50.942;6.900;2023-05-10T01:48:39;45.72;;;16.20;;
20095;SDS011;10207;50.942;6.900;2023-05-10T01:51:06;49.55;;;18.33;;
20095;SDS011;10207;50.942;6.900;2023-05-10T01:53:32;48.58;;;17.92;;
20095;SDS011;10207;50.942;6.900;2023-05-10T01:55:59;44.38;;;16.60;;
20095;SDS011;10207;50.942;6.900;2023-05-10T01:58:32;51.33;;;17.70;;
20095;SDS011;10207;50.942;6.900;2023-05-10T02:01:00;51.58;;;17.13;;
20095;SDS011;10207;50.942;6.900;2023-05-10T02:03:27;51.17;;;18.60;;
20095;SDS011;10207;50.942;6.900;2023-05-10T02:05:54;53.63;;;17.33;;
20095;SDS011;10207;50.942;6.900;2023-05-10T02:08:21;50.28;;;18.58;;
20095;SDS011;10207;50.942;6.900;2023-05-10T02:10:49;49.47;;;17.88;;
20095;SDS011;10207;50.942;6.900;2023-05-10T02:13:15;45.13;;;15.73;;
20095;SDS011;10207;50.942;6.900;2023-05-10T02:15:42;51.95;;;16.88;;
20095;SDS011;10207;50.942;6.900;2023-05-10T02:18:09;54.47;;;17.88;;
20095;SDS011;10207;50.942;6.900;2023-05-10T02:20:36;53.00;;;16.05;;
20095;SDS011;10207;50.942;6.900;2023-05-10T02:23:03;40.55;;;15.18;;
20095;SDS011;10207;50.942;6.900;2023-05-10T02:25:30;47.08;;;14.98;;
20095;SDS011;10207;50.942;6.900;2023-05-10T02:27:57;44.55;;;13.55;;
20095;SDS011;10207;50.942;6.900;2023-05-10T02:30:23;49.45;;;14.98;;
20095;SDS011;10207;50.942;6.900;2023-05-10T02:32:50;45.38;;;14.43;;
20095;SDS011;10207;50.942;6.900;2023-05-10T02:35:17;45.40;;;13.40;;
20095;SDS011;10207;50.942;6.900;2023-05-10T02:37:44;45.05;;;13.82;;
20095;SDS011;10207;50.942;6.900;2023-05-10T02:40:11;38.78;;;13.77;;
20095;SDS011;10207;50.942;6.900;2023-05-10T02:42:38;45.20;;;13.30;;
20095;SDS011;10207;50.942;6.900;2023-05-10T02:45:07;37.80;;;10.98;;
20095;SDS011;10207;50.942;6.900;2023-05-10T02:47:34;32.97;;;11.68;;
20095;SDS011;10207;50.942;6.900;2023-05-10T02:50:01;28.30;;;10.60;;
20095;SDS011;10207;50.942;6.900;2023-05-10T02:52:28;27.13;;;10.63;;
20095;SDS011;10207;50.942;6.900;2023-05-10T02:54:55;26.63;;;10.30;;
20095;SDS011;10207;50.942;6.900;2023-05-10T02:57:25;26.27;;;10.60;;
20095;SDS011;10207;50.942;6.900;2023-05-10T02:59:52;27.83;;;10.43;;
20095;SDS011;10207;50.942;6.900;2023-05-10T03:02:17;30.45;;;10.57;;
20095;SDS011;10207;50.942;6.900;2023-05-10T03:04:44;29.95;;;10.80;;
20095;SDS011;10207;50.942;6.900;2023-05-10T03:07:10;28.10;;;10.68;;
20095;SDS011;10207;50.942;6.900;2023-05-10T03:09:36;32.40;;;10.75;;
20095;SDS011;10207;50.942;6.900;2023-05-10T03:17:10;30.25;;;10.85;;
20095;SDS011;10207;50.942;6.900;2023-05-10T03:22:04;40.75;;;11.95;;
20095;SDS011;10207;50.942;6.900;2023-05-10T03:24:34;38.17;;;11.77;;
20095;SDS011;10207;50.942;6.900;2023-05-10T03:27:02;33.17;;;11.05;;
20095;SDS011;10207;50.942;6.900;2023-05-10T03:29:30;31.95;;;10.82;;
20095;SDS011;10207;50.942;6.900;2023-05-10T03:31:59;44.47;;;13.13;;
20095;SDS011;10207;50.942;6.900;2023-05-10T03:34:28;50.88;;;14.15;;
20095;SDS011;10207;50.942;6.900;2023-05-10T03:36:55;42.95;;;13.45;;
20095;SDS011;10207;50.942;6.900;2023-05-10T03:39:22;56.88;;;15.93;;
20095;SDS011;10207;50.942;6.900;2023-05-10T03:41:53;48.30;;;13.88;;
20095;SDS011;10207;50.942;6.900;2023-05-10T03:44:19;49.75;;;15.98;;
20095;SDS011;10207;50.942;6.900;2023-05-10T03:46:45;54.70;;;16.13;;
20095;SDS011;10207;50.942;6.900;2023-05-10T03:49:11;63.10;;;17.95;;
20095;SDS011;10207;50.942;6.900;2023-05-10T03:51:37;62.58;;;17.98;;
20095;SDS011;10207;50.942;6.900;2023-05-10T03:54:03;59.50;;;18.33;;
20095;SDS011;10207;50.942;6.900;2023-05-10T03:56:29;59.25;;;19.08;;
20095;SDS011;10207;50.942;6.900;2023-05-10T03:58:55;65.97;;;20.05;;
20095;SDS011;10207;50.942;6.900;2023-05-10T04:01:21;58.58;;;19.58;;
20095;SDS011;10207;50.942;6.900;2023-05-10T04:03:47;62.83;;;20.17;;
20095;SDS011;10207;50.942;6.900;2023-05-10T04:06:13;84.75;;;21.83;;
20095;SDS011;10207;50.942;6.900;2023-05-10T04:08:39;61.03;;;19.60;;
20095;SDS011;10207;50.942;6.900;2023-05-10T04:11:06;62.53;;;20.38;;
20095;SDS011;10207;50.942;6.900;2023-05-10T04:13:33;59.97;;;19.83;;
20095;SDS011;10207;50.942;6.900;2023-05-10T04:15:59;62.75;;;21.80;;
20095;SDS011;10207;50.942;6.900;2023-05-10T04:18:25;63.50;;;20.20;;
20095;SDS011;10207;50.942;6.900;2023-05-10T04:20:51;48.05;;;17.95;;
20095;SDS011;10207;50.942;6.900;2023-05-10T04:23:17;50.72;;;18.75;;
20095;SDS011;10207;50.942;6.900;2023-05-10T04:25:43;54.17;;;20.45;;
20095;SDS011;10207;50.942;6.900;2023-05-10T04:28:09;67.15;;;22.45;;
20095;SDS011;10207;50.942;6.900;2023-05-10T04:30:34;59.03;;;20.58;;
20095;SDS011;10207;50.942;6.900;2023-05-10T04:33:00;56.13;;;21.48;;
20095;SDS011;10207;50.942;6.900;2023-05-10T04:35:27;50.05;;;20.10;;
20095;SDS011;10207;50.942;6.900;2023-05-10T04:37:54;59.83;;;22.65;;
20095;SDS011;10207;50.942;6.900;2023-05-10T04:40:20;52.08;;;22.35;;
20095;SDS011;10207;50.942;6.900;2023-05-10T04:42:46;51.25;;;22.50;;
20095;SDS011;10207;50.942;6.900;2023-05-10T04:45:12;52.75;;;21.27;;
20095;SDS011;10207;50.942;6.900;2023-05-10T04:47:40;50.53;;;21.67;;
20095;SDS011;10207;50.942;6.900;2023-05-10T04:50:06;56.53;;;22.13;;
20095;SDS011;10207;50.942;6.900;2023-05-10T04:52:32;53.65;;;21.25;;
20095;SDS011;10207;50.942;6.900;2023-05-10T04:54:59;46.40;;;21.27;;
20095;SDS011;10207;50.942;6.900;2023-05-10T04:57:24;55.38;;;21.83;;
20095;SDS011;10207;50.942;6.900;2023-05-10T04:59:50;57.63;;;21.60;;
20095;SDS011;10207;50.942;6.900;2023-05-10T05:02:16;53.15;;;22.88;;
20095;SDS011;10207;50.942;6.900;2023-05-10T05:04:42;47.15;;;21.50;;
20095;SDS011;10207;50.942;6.900;2023-05-10T05:07:08;44.83;;;20.15;;
20095;SDS011;10207;50.942;6.900;2023-05-10T05:09:34;43.38;;;20.10;;
20095;SDS011;10207;50.942;6.900;2023-05-10T05:12:00;41.42;;;19.95;;
20095;SDS011;10207;50.942;6.900;2023-05-10T05:14:26;41.65;;;20.42;;
20095;SDS011;10207;50.942;6.900;2023-05-10T05:16:52;41.75;;;19.90;;
20095;SDS011;10207;50.942;6.900;2023-05-10T05:19:18;34.70;;;18.20;;
20095;SDS011;10207;50.942;6.900;2023-05-10T05:21:44;42.42;;;19.40;;
20095;SDS011;10207;50.942;6.900;2023-05-10T05:24:10;53.38;;;19.45;;
20095;SDS011;10207;50.942;6.900;2023-05-10T05:26:38;39.33;;;18.60;;
20095;SDS011;10207;50.942;6.900;2023-05-10T05:29:04;38.72;;;17.95;;
20095;SDS011;10207;50.942;6.900;2023-05-10T05:31:29;37.20;;;17.42;;
20095;SDS011;10207;50.942;6.900;2023-05-10T05:33:56;39.63;;;17.80;;
20095;SDS011;10207;50.942;6.900;2023-05-10T05:36:21;40.25;;;18.48;;
20095;SDS011;10207;50.942;6.900;2023-05-10T05:38:48;38.78;;;18.02;;
20095;SDS011;10207;50.942;6.900;2023-05-10T05:41:13;30.73;;;16.27;;
20095;SDS011;10207;50.942;6.900;2023-05-10T05:43:39;36.28;;;15.55;;
20095;SDS011;10207;50.942;6.900;2023-05-10T05:46:05;31.90;;;14.57;;
20095;SDS011;10207;50.942;6.900;2023-05-10T05:48:31;33.33;;;16.25;;
20095;SDS011;10207;50.942;6.900;2023-05-10T05:50:57;32.80;;;15.90;;
20095;SDS011;10207;50.942;6.900;2023-05-10T05:53:23;32.05;;;15.63;;
20095;SDS011;10207;50.942;6.900;2023-05-10T05:55:55;34.70;;;15.80;;
20095;SDS011;10207;50.942;6.900;2023-05-10T05:58:22;34.85;;;15.25;;
20095;SDS011;10207;50.942;6.900;2023-05-10T06:00:48;33.97;;;14.45;;
20095;SDS011;10207;50.942;6.900;2023-05-10T06:03:14;26.05;;;14.07;;
20095;SDS011;10207;50.942;6.900;2023-05-10T06:05:40;26.42;;;12.68;;
20095;SDS011;10207;50.942;6.900;2023-05-10T06:08:06;22.75;;;12.73;;
20095;SDS011;10207;50.942;6.900;2023-05-10T06:10:31;27.17;;;12.65;;
20095;SDS011;10207;50.942;6.900;2023-05-10T06:12:58;27.58;;;13.52;;
20095;SDS011;10207;50.942;6.900;2023-05-10T06:15:24;27.90;;;12.32;;
20095;SDS011;10207;50.942;6.900;2023-05-10T06:17:50;27.92;;;12.88;;
20095;SDS011;10207;50.942;6.900;2023-05-10T06:20:16;29.63;;;12.52;;
20095;SDS011;10207;50.942;6.900;2023-05-10T06:22:42;25.65;;;12.57;;
20095;SDS011;10207;50.942;6.900;2023-05-10T06:25:08;25.95;;;12.93;;
20095;SDS011;10207;50.942;6.900;2023-05-10T06:27:34;25.63;;;13.27;;
20095;SDS011;10207;50.942;6.900;2023-05-10T06:30:00;24.80;;;13.20;;
20095;SDS011;10207;50.942;6.900;2023-05-10T06:32:26;24.55;;;11.88;;
20095;SDS011;10207;50.942;6.900;2023-05-10T06:34:52;23.90;;;12.32;;
20095;SDS011;10207;50.942;6.900;2023-05-10T06:37:18;23.08;;;13.48;;
20095;SDS011;10207;50.942;6.900;2023-05-10T06:39:44;20.08;;;11.20;;
20095;SDS011;10207;50.942;6.900;2023-05-10T06:42:10;24.63;;;12.30;;
20095;SDS011;10207;50.942;6.900;2023-05-10T06:44:36;28.08;;;14.45;;
20095;SDS011;10207;50.942;6.900;2023-05-10T06:47:02;23.38;;;12.25;;
20095;SDS011;10207;50.942;6.900;2023-05-10T06:49:28;21.77;;;12.43;;
20095;SDS011;10207;50.942;6.900;2023-05-10T06:51:57;22.88;;;12.45;;
20095;SDS011;10207;50.942;6.900;2023-05-10T06:54:23;19.98;;;13.18;;
20095;SDS011;10207;50.942;6.900;2023-05-10T06:56:49;22.50;;;12.88;;
20095;SDS011;10207;50.942;6.900;2023-05-10T06:59:15;24.30;;;11.93;;
20095;SDS011;10207;50.942;6.900;2023-05-10T07:01:42;22.23;;;12.20;;
20095;SDS011;10207;50.942;6.900;2023-05-10T07:04:08;27.50;;;13.93;;
20095;SDS011;10207;50.942;6.900;2023-05-10T07:06:34;20.83;;;12.57;;
20095;SDS011;10207;50.942;6.900;2023-05-10T07:09:00;22.70;;;12.07;;
20095;SDS011;10207;50.942;6.900;2023-05-10T07:11:26;23.75;;;12.68;;
20095;SDS011;10207;50.942;6.900;2023-05-10T07:13:52;22.15;;;12.15;;
20095;SDS011;10207;50.942;6.900;2023-05-10T07:16:18;20.92;;;12.27;;
20095;SDS011;10207;50.942;6.900;2023-05-10T07:18:44;22.10;;;11.73;;
20095;SDS011;10207;50.942;6.900;2023-05-10T07:21:10;14.70;;;10.02;;
20095;SDS011;10207;50.942;6.900;2023-05-10T07:23:36;19.35;;;9.98;;
20095;SDS011;10207;50.942;6.900;2023-05-10T07:26:02;19.30;;;10.98;;
20095;SDS011;10207;50.942;6.900;2023-05-10T07:28:28;20.60;;;10.00;;
20095;SDS011;10207;50.942;6.900;2023-05-10T07:30:54;17.73;;;10.52;;
20095;SDS011;10207;50.942;6.900;2023-05-10T07:33:19;21.42;;;12.43;;
20095;SDS011;10207;50.942;6.900;2023-05-10T07:35:45;23.67;;;11.55;;
20095;SDS011;10207;50.942;6.900;2023-05-10T07:38:11;21.33;;;11.95;;
20095;SDS011;10207;50.942;6.900;2023-05-10T07:40:38;18.27;;;11.75;;
20095;SDS011;10207;50.942;6.900;2023-05-10T07:43:04;18.15;;;10.50;;
20095;SDS011;10207;50.942;6.900;2023-05-10T07:45:30;17.00;;;10.30;;
20095;SDS011;10207;50.942;6.900;2023-05-10T07:47:56;16.55;;;10.30;;
20095;SDS011;10207;50.942;6.900;2023-05-10T07:50:23;17.05;;;10.05;;
20095;SDS011;10207;50.942;6.900;2023-05-10T07:52:49;18.67;;;10.60;;
20095;SDS011;10207;50.942;6.900;2023-05-10T07:55:15;21.27;;;9.88;;
20095;SDS011;10207;50.942;6.900;2023-05-10T07:57:41;18.83;;;10.38;;
20095;SDS011;10207;50.942;6.900;2023-05-10T08:00:07;18.85;;;11.13;;
20095;SDS011;10207;50.942;6.900;2023-05-10T08:02:40;18.50;;;10.45;;
20095;SDS011;10207;50.942;6.900;2023-05-10T08:05:06;18.33;;;12.10;;
20095;SDS011;10207;50.942;6.900;2023-05-10T08:07:32;21.73;;;11.38;;
20095;SDS011;10207;50.942;6.900;2023-05-10T08:09:58;19.30;;;11.65;;
20095;SDS011;10207;50.942;6.900;2023-05-10T08:12:24;20.17;;;10.40;;
20095;SDS011;10207;50.942;6.900;2023-05-10T08:14:50;20.45;;;13.38;;
20095;SDS011;10207;50.942;6.900;2023-05-10T08:17:16;20.42;;;10.70;;
20095;SDS011;10207;50.942;6.900;2023-05-10T08:19:42;17.70;;;10.70;;
20095;SDS011;10207;50.942;6.900;2023-05-10T08:22:08;18.88;;;9.20;;
20095;SDS011;10207;50.942;6.900;2023-05-10T08:24:34;17.58;;;10.25;;
20095;SDS011;10207;50.942;6.900;2023-05-10T08:27:07;16.42;;;9.60;;
20095;SDS011;10207;50.942;6.900;2023-05-10T08:29:33;25.77;;;11.05;;
20095;SDS011;10207;50.942;6.900;2023-05-10T08:31:59;13.50;;;9.45;;
20095;SDS011;10207;50.942;6.900;2023-05-10T08:34:26;14.80;;;8.55;;
20095;SDS011;10207;50.942;6.900;2023-05-10T08:36:52;13.95;;;7.32;;
20095;SDS011;10207;50.942;6.900;2023-05-10T08:39:18;13.77;;;8.25;;
20095;SDS011;10207;50.942;6.900;2023-05-10T08:41:44;15.55;;;8.43;;
20095;SDS011;10207;50.942;6.900;2023-05-10T08:44:12;15.55;;;8.73;;
20095;SDS011;10207;50.942;6.900;2023-05-10T08:46:38;15.82;;;9.13;;
20095;SDS011;10207;50.942;6.900;2023-05-10T08:49:09;15.10;;;8.88;;
20095;SDS011;10207;50.942;6.900;2023-05-10T08:51:40;13.88;;;8.75;;
20095;SDS011;10207;50.942;6.900;2023-05-10T08:54:06;15.35;;;9.13;;
20095;SDS011;10207;50.942;6.900;2023-05-10T08:56:32;15.35;;;9.23;;
20095;SDS011;10207;50.942;6.900;2023-05-10T08:58:58;14.07;;;8.98;;
20095;SDS011;10207;50.942;6.900;2023-05-10T09:01:24;13.70;;;9.48;;
20095;SDS011;10207;50.942;6.900;2023-05-10T09:03:51;15.68;;;9.32;;
20095;SDS011;10207;50.942;6.900;2023-05-10T09:06:17;17.60;;;9.25;;
20095;SDS011;10207;50.942;6.900;2023-05-10T09:08:43;14.57;;;8.57;;
20095;SDS011;10207;50.942;6.900;2023-05-10T09:11:11;15.52;;;8.20;;
20095;SDS011;10207;50.942;6.900;2023-05-10T09:13:38;18.42;;;9.32;;
20095;SDS011;10207;50.942;6.900;2023-05-10T09:16:04;13.95;;;8.60;;
20095;SDS011;10207;50.942;6.900;2023-05-10T09:18:30;15.13;;;7.93;;
20095;SDS011;10207;50.942;6.900;2023-05-10T09:20:56;13.70;;;8.93;;
20095;SDS011;10207;50.942;6.900;2023-05-10T09:23:22;13.90;;;7.68;;
20095;SDS011;10207;50.942;6.900;2023-05-10T09:26:01;14.25;;;8.32;;
20095;SDS011;10207;50.942;6.900;2023-05-10T09:28:31;12.23;;;7.95;;
20095;SDS011;10207;50.942;6.900;2023-05-10T09:30:57;17.05;;;7.72;;
20095;SDS011;10207;50.942;6.900;2023-05-10T09:33:23;17.23;;;8.48;;
20095;SDS011;10207;50.942;6.900;2023-05-10T09:35:49;14.82;;;9.18;;
20095;SDS011;10207;50.942;6.900;2023-05-10T09:38:17;13.52;;;8.88;;
20095;SDS011;10207;50.942;6.900;2023-05-10T09:40:45;13.48;;;9.68;;
20095;SDS011;10207;50.942;6.900;2023-05-10T09:43:20;11.57;;;8.20;;
20095;SDS011;10207;50.942;6.900;2023-05-10T09:45:45;14.32;;;9.13;;
20095;SDS011;10207;50.942;6.900;2023-05-10T09:48:13;13.48;;;8.18;;
20095;SDS011;10207;50.942;6.900;2023-05-10T09:50:39;16.20;;;9.02;;
20095;SDS011;10207;50.942;6.900;2023-05-10T09:53:05;18.00;;;9.88;;
20095;SDS011;10207;50.942;6.900;2023-05-10T09:58:04;14.48;;;7.93;;
20095;SDS011;10207;50.942;6.900;2023-05-10T10:00:39;20.30;;;10.10;;
20095;SDS011;10207;50.942;6.900;2023-05-10T10:03:05;13.93;;;8.60;;
20095;SDS011;10207;50.942;6.900;2023-05-10T10:05:32;11.35;;;7.75;;
20095;SDS011;10207;50.942;6.900;2023-05-10T10:07:58;12.55;;;7.68;;
20095;SDS011;10207;50.942;6.900;2023-05-10T10:10:25;10.52;;;7.10;;
20095;SDS011;10207;50.942;6.900;2023-05-10T10:12:52;8.95;;;5.30;;
20095;SDS011;10207;50.942;6.900;2023-05-10T10:15:18;12.90;;;7.57;;
20095;SDS011;10207;50.942;6.900;2023-05-10T10:17:44;9.65;;;6.28;;
20095;SDS011;10207;50.942;6.900;2023-05-10T10:20:11;9.27;;;5.47;;
20095;SDS011;10207;50.942;6.900;2023-05-10T10:22:37;8.05;;;4.97;;
20095;SDS011;10207;50.942;6.900;2023-05-10T10:25:04;11.75;;;5.63;;
20095;SDS011;10207;50.942;6.900;2023-05-10T10:27:45;9.38;;;5.78;;
20095;SDS011;10207;50.942;6.900;2023-05-10T10:35:12;11.25;;;5.68;;
20095;SDS011;10207;50.942;6.900;2023-05-10T10:37:44;11.77;;;5.85;;
20095;SDS011;10207;50.942;6.900;2023-05-10T10:40:22;12.60;;;5.97;;
20095;SDS011;10207;50.942;6.900;2023-05-10T10:42:48;10.88;;;5.97;;
20095;SDS011;10207;50.942;6.900;2023-05-10T10:45:15;10.82;;;5.93;;
20095;SDS011;10207;50.942;6.900;2023-05-10T10:47:41;11.70;;;5.68;;
20095;SDS011;10207;50.942;6.900;2023-05-10T10:50:09;10.90;;;6.55;;
20095;SDS011;10207;50.942;6.900;2023-05-10T10:52:42;10.80;;;6.03;;
20095;SDS011;10207;50.942;6.900;2023-05-10T10:55:13;11.05;;;6.82;;
20095;SDS011;10207;50.942;6.900;2023-05-10T10:57:43;11.35;;;7.10;;
20095;SDS011;10207;50.942;6.900;2023-05-10T11:08:12;8.38;;;4.43;;
20095;SDS011;10207;50.942;6.900;2023-05-10T11:10:39;7.05;;;4.35;;
20095;SDS011;10207;50.942;6.900;2023-05-10T11:13:06;6.72;;;3.45;;
20095;SDS011;10207;50.942;6.900;2023-05-10T11:15:36;5.80;;;3.75;;
20095;SDS011;10207;50.942;6.900;2023-05-10T11:18:16;5.05;;;3.47;;
20095;SDS011;10207;50.942;6.900;2023-05-10T11:20:42;7.50;;;3.65;;
20095;SDS011;10207;50.942;6.900;2023-05-10T11:23:11;5.00;;;3.47;;
20095;SDS011;10207;50.942;6.900;2023-05-10T11:25:42;5.50;;;3.47;;
20095;SDS011;10207;50.942;6.900;2023-05-10T11:28:08;5.47;;;3.47;;
20095;SDS011;10207;50.942;6.900;2023-05-10T11:30:35;5.15;;;3.10;;
20095;SDS011;10207;50.942;6.900;2023-05-10T11:33:02;5.53;;;2.83;;
20095;SDS011;10207;50.942;6.900;2023-05-10T11:35:28;6.60;;;3.00;;
20095;SDS011;10207;50.942;6.900;2023-05-10T11:37:54;2.88;;;2.00;;
20095;SDS011;10207;50.942;6.900;2023-05-10T11:40:23;5.80;;;3.13;;
20095;SDS011;10207;50.942;6.900;2023-05-10T11:42:55;4.03;;;2.65;;
20095;SDS011;10207;50.942;6.900;2023-05-10T11:45:23;2.97;;;1.98;;
20095;SDS011;10207;50.942;6.900;2023-05-10T11:47:49;4.68;;;2.30;;
20095;SDS011;10207;50.942;6.900;2023-05-10T11:50:16;2.75;;;2.03;;
20095;SDS011;10207;50.942;6.900;2023-05-10T11:52:42;3.72;;;2.25;;
20095;SDS011;10207;50.942;6.900;2023-05-10T11:55:08;3.53;;;1.92;;
20095;SDS011;10207;50.942;6.900;2023-05-10T11:57:35;2.85;;;1.92;;
20095;SDS011;10207;50.942;6.900;2023-05-10T12:00:01;1.85;;;1.50;;
20095;SDS011;10207;50.942;6.900;2023-05-10T12:02:33;2.47;;;1.58;;
20095;SDS011;10207;50.942;6.900;2023-05-10T12:04:59;2.70;;;1.55;;
20095;SDS011;10207;50.942;6.900;2023-05-10T12:07:26;4.07;;;1.73;;
20095;SDS011;10207;50.942;6.900;2023-05-10T12:10:11;2.95;;;1.88;;
20095;SDS011;10207;50.942;6.900;2023-05-10T12:12:43;2.60;;;1.55;;
20095;SDS011;10207;50.942;6.900;2023-05-10T12:15:17;2.47;;;1.42;;
20095;SDS011;10207;50.942;6.900;2023-05-10T12:17:44;3.63;;;1.73;;
20095;SDS011;10207;50.942;6.900;2023-05-10T12:20:14;6.03;;;2.35;;
20095;SDS011;10207;50.942;6.900;2023-05-10T12:22:43;2.35;;;1.67;;
20095;SDS011;10207;50.942;6.900;2023-05-10T12:25:09;3.00;;;1.60;;
20095;SDS011;10207;50.942;6.900;2023-05-10T12:27:36;2.45;;;1.60;;
20095;SDS011;10207;50.942;6.900;2023-05-10T12:30:02;1.80;;;1.30;;
20095;SDS011;10207;50.942;6.900;2023-05-10T12:32:37;2.33;;;1.60;;
20095;SDS011;10207;50.942;6.900;2023-05-10T12:35:04;2.17;;;1.48;;
20095;SDS011;10207;50.942;6.900;2023-05-10T12:37:29;2.05;;;1.50;;
20095;SDS011;10207;50.942;6.900;2023-05-10T12:39:55;1.58;;;1.48;;
20095;SDS011;10207;50.942;6.900;2023-05-10T12:42:21;2.28;;;1.50;;
20095;SDS011;10207;50.942;6.900;2023-05-10T12:44:48;1.15;;;0.98;;
20095;SDS011;10207;50.942;6.900;2023-05-10T12:47:14;2.85;;;1.48;;
20095;SDS011;10207;50.942;6.900;2023-05-10T12:49:41;1.80;;;1.17;;
20095;SDS011;10207;50.942;6.900;2023-05-10T12:52:06;2.17;;;1.35;;
20095;SDS011;10207;50.942;6.900;2023-05-10T12:54:32;1.50;;;1.20;;
20095;SDS011;10207;50.942;6.900;2023-05-10T12:56:58;3.75;;;1.30;;
20095;SDS011;10207;50.942;6.900;2023-05-10T12:59:24;3.00;;;1.48;;
20095;SDS011;10207;50.942;6.900;2023-05-10T13:01:50;2.30;;;1.20;;
20095;SDS011;10207;50.942;6.900;2023-05-10T13:04:17;1.38;;;1.05;;
20095;SDS011;10207;50.942;6.900;2023-05-10T13:06:43;2.17;;;1.60;;
20095;SDS011;10207;50.942;6.900;2023-05-10T13:09:09;3.58;;;1.58;;
20095;SDS011;10207;50.942;6.900;2023-05-10T13:11:35;1.60;;;1.23;;
20095;SDS011;10207;50.942;6.900;2023-05-10T13:14:02;2.67;;;1.35;;
20095;SDS011;10207;50.942;6.900;2023-05-10T13:16:29;2.25;;;1.08;;
20095;SDS011;10207;50.942;6.900;2023-05-10T13:18:55;1.85;;;1.08;;
20095;SDS011;10207;50.942;6.900;2023-05-10T13:21:20;2.10;;;1.40;;
20095;SDS011;10207;50.942;6.900;2023-05-10T13:23:46;3.83;;;0.90;;
20095;SDS011;10207;50.942;6.900;2023-05-10T13:26:12;1.05;;;0.75;;
20095;SDS011;10207;50.942;6.900;2023-05-10T13:28:38;3.30;;;0.98;;
20095;SDS011;10207;50.942;6.900;2023-05-10T13:31:04;1.27;;;0.63;;
20095;SDS011;10207;50.942;6.900;2023-05-10T13:33:30;1.92;;;0.82;;
20095;SDS011;10207;50.942;6.900;2023-05-10T13:35:56;3.33;;;0.82;;
20095;SDS011;10207;50.942;6.900;2023-05-10T13:38:22;0.80;;;0.70;;
20095;SDS011;10207;50.942;6.900;2023-05-10T13:40:48;2.42;;;0.73;;
20095;SDS011;10207;50.942;6.900;2023-05-10T13:43:18;2.58;;;1.70;;
20095;SDS011;10207;50.942;6.900;2023-05-10T13:45:44;1.60;;;0.80;;
20095;SDS011;10207;50.942;6.900;2023-05-10T13:48:10;1.15;;;0.82;;
20095;SDS011;10207;50.942;6.900;2023-05-10T13:50:36;3.72;;;0.70;;
20095;SDS011;10207;50.942;6.900;2023-05-10T13:53:01;1.02;;;0.73;;
20095;SDS011;10207;50.942;6.900;2023-05-10T13:55:27;1.10;;;0.80;;
20095;SDS011;10207;50.942;6.900;2023-05-10T13:57:54;3.28;;;0.80;;
20095;SDS011;10207;50.942;6.900;2023-05-10T14:00:40;0.70;;;0.57;;
20095;SDS011;10207;50.942;6.900;2023-05-10T14:03:08;3.13;;;0.65;;
20095;SDS011;10207;50.942;6.900;2023-05-10T14:05:36;1.02;;;0.82;;
20095;SDS011;10207;50.942;6.900;2023-05-10T14:08:02;1.38;;;0.50;;
20095;SDS011;10207;50.942;6.900;2023-05-10T14:10:28;1.35;;;0.45;;
20095;SDS011;10207;50.942;6.900;2023-05-10T14:12:54;1.08;;;0.50;;
20095;SDS011;10207;50.942;6.900;2023-05-10T14:15:20;0.95;;;0.60;;
20095;SDS011;10207;50.942;6.900;2023-05-10T14:17:46;1.80;;;0.70;;
20095;SDS011;10207;50.942;6.900;2023-05-10T14:20:12;0.73;;;0.55;;
20095;SDS011;10207;50.942;6.900;2023-05-10T14:22:38;2.45;;;0.80;;
20095;SDS011;10207;50.942;6.900;2023-05-10T14:25:04;2.55;;;0.82;;
20095;SDS011;10207;50.942;6.900;2023-05-10T14:27:31;1.10;;;0.68;;
20095;SDS011;10207;50.942;6.900;2023-05-10T14:29:57;4.72;;;0.90;;
20095;SDS011;10207;50.942;6.900;2023-05-10T14:32:23;1.15;;;0.70;;
20095;SDS011;10207;50.942;6.900;2023-05-10T14:34:49;1.95;;;0.63;;
20095;SDS011;10207;50.942;6.900;2023-05-10T14:37:15;1.67;;;0.70;;
20095;SDS011;10207;50.942;6.900;2023-05-10T14:39:41;2.22;;;1.00;;
20095;SDS011;10207;50.942;6.900;2023-05-10T14:42:09;4.22;;;0.75;;
20095;SDS011;10207;50.942;6.900;2023-05-10T14:44:35;1.63;;;0.70;;
20095;SDS011;10207;50.942;6.900;2023-05-10T14:47:01;2.70;;;1.05;;
20095;SDS011;10207;50.942;6.900;2023-05-10T14:49:27;1.75;;;0.80;;
20095;SDS011;10207;50.942;6.900;2023-05-10T14:51:53;3.90;;;0.75;;
20095;SDS011;10207;50.942;6.900;2023-05-10T14:54:19;3.97;;;0.80;;
20095;SDS011;10207;50.942;6.900;2023-05-10T14:56:46;2.97;;;0.80;;
20095;SDS011;10207;50.942;6.900;2023-05-10T14:59:17;2.53;;;0.93;;
20095;SDS011;10207;50.942;6.900;2023-05-10T15:01:45;5.22;;;1.23;;
20095;SDS011;10207;50.942;6.900;2023-05-10T15:04:11;2.13;;;0.88;;
20095;SDS011;10207;50.942;6.900;2023-05-10T15:06:39;3.70;;;0.90;;